createdAt,value
2023-03-15T00:01:39.296Z,54.94
2023-03-15T00:04:07.828Z,54.49
2023-03-15T00:06:36.593Z,54.43
2023-03-15T00:09:06.687Z,54.11
2023-03-15T00:11:35.152Z,54.63
2023-03-15T00:14:03.824Z,53.81
2023-03-15T00:16:33.058Z,54.31
2023-03-15T00:19:01.893Z,54.29
2023-03-15T00:21:30.386Z,54.43
2023-03-15T00:23:58.974Z,54.38
2023-03-15T00:26:28.923Z,54.47
2023-03-15T00:28:57.234Z,54.04
2023-03-15T00:31:26.940Z,54.29
2023-03-15T00:33:55.459Z,54.66
2023-03-15T00:36:26.818Z,54.75
2023-03-15T00:38:57.171Z,54.87
2023-03-15T00:41:26.020Z,54.96
2023-03-15T00:43:55.860Z,54.52
2023-03-15T00:46:24.366Z,54.81
2023-03-15T00:48:53.299Z,55.67
2023-03-15T00:51:23.564Z,55.91
2023-03-15T00:53:53.598Z,55.64
2023-03-15T00:56:24.336Z,56.12
2023-03-15T00:58:54.102Z,56.47
2023-03-15T01:01:26.176Z,56.69
2023-03-15T01:03:55.387Z,57.26
2023-03-15T01:06:29.110Z,57.72
2023-03-15T01:08:57.980Z,57.53
2023-03-15T01:11:29.047Z,57.44
2023-03-15T01:14:00.259Z,57.57
2023-03-15T01:16:30.252Z,58.66
2023-03-15T01:18:58.735Z,58.38
2023-03-15T01:21:27.154Z,58.27
2023-03-15T01:23:55.918Z,58.11
2023-03-15T01:26:24.974Z,58.01
2023-03-15T01:28:53.561Z,58.23
2023-03-15T01:31:24.678Z,57.89
2023-03-15T01:33:54.771Z,57.53
2023-03-15T01:36:24.413Z,58.02
2023-03-15T01:38:54.004Z,58.28
2023-03-15T01:41:27.618Z,57.98
2023-03-15T01:43:56.301Z,57.78
2023-03-15T01:46:27.649Z,57.42
2023-03-15T01:49:08.511Z,56.69
2023-03-15T01:51:47.516Z,57.49
2023-03-15T01:54:20.616Z,57.68
2023-03-15T01:56:56.191Z,57.24
2023-03-15T01:59:30.864Z,57.25
2023-03-15T02:02:01.343Z,57.69
2023-03-15T02:04:35.691Z,57.24
2023-03-15T02:07:06.598Z,56.59
2023-03-15T02:09:43.024Z,57.15
2023-03-15T02:12:12.621Z,57.95
2023-03-15T02:14:44.204Z,58.18
2023-03-15T02:17:17.045Z,58.00
2023-03-15T02:19:57.977Z,58.26
2023-03-15T02:22:33.788Z,58.37
2023-03-15T02:25:09.722Z,57.43
2023-03-15T02:27:41.025Z,57.74
2023-03-15T02:30:11.580Z,57.40
2023-03-15T02:32:40.322Z,57.96
2023-03-15T02:35:09.465Z,57.41
2023-03-15T02:37:37.879Z,56.52
2023-03-15T02:40:18.200Z,56.62
2023-03-15T02:42:49.926Z,56.32
2023-03-15T02:45:19.866Z,56.16
2023-03-15T02:47:50.080Z,55.49
2023-03-15T02:50:18.955Z,55.53
2023-03-15T02:52:47.474Z,55.36
2023-03-15T02:55:16.998Z,55.36
2023-03-15T02:57:45.430Z,54.88
2023-03-15T03:00:16.233Z,54.77
2023-03-15T03:02:47.845Z,54.57
2023-03-15T03:05:17.861Z,53.89
2023-03-15T03:07:47.068Z,53.13
2023-03-15T03:10:19.068Z,53.69
2023-03-15T03:13:05.239Z,53.30
2023-03-15T03:15:38.546Z,52.25
2023-03-15T03:18:07.072Z,52.93
2023-03-15T03:20:35.480Z,51.85
2023-03-15T03:23:06.251Z,51.72
2023-03-15T03:25:36.809Z,52.14
2023-03-15T03:28:05.394Z,52.10
2023-03-15T03:30:36.742Z,52.09
2023-03-15T03:33:06.798Z,51.88
2023-03-15T03:35:35.194Z,52.43
2023-03-15T03:38:03.609Z,51.69
2023-03-15T03:40:37.320Z,51.84
2023-03-15T03:43:07.533Z,51.05
2023-03-15T03:45:36.886Z,49.83
2023-03-15T03:48:07.893Z,50.55
2023-03-15T03:50:36.584Z,49.94
2023-03-15T03:53:05.038Z,49.51
2023-03-15T03:55:36.145Z,50.69
2023-03-15T03:58:04.583Z,49.96
2023-03-15T04:00:41.900Z,50.61
2023-03-15T04:03:13.120Z,50.33
2023-03-15T04:05:46.528Z,51.38
2023-03-15T04:08:19.139Z,51.64
2023-03-15T04:10:50.700Z,50.68
2023-03-15T04:13:19.186Z,51.99
2023-03-15T04:15:47.887Z,51.53
2023-03-15T04:18:19.693Z,52.67
2023-03-15T04:20:49.235Z,51.78
2023-03-15T04:23:20.353Z,52.74
2023-03-15T04:26:07.672Z,52.79
2023-03-15T04:29:00.630Z,53.18
2023-03-15T04:31:37.934Z,52.97
2023-03-15T04:34:29.581Z,52.98
2023-03-15T04:37:32.316Z,53.27
2023-03-15T04:40:19.395Z,53.26
2023-03-15T04:42:47.833Z,53.15
2023-03-15T04:45:34.224Z,52.90
2023-03-15T04:48:03.553Z,52.83
2023-03-15T04:50:40.960Z,53.13
2023-03-15T04:53:21.505Z,52.75
2023-03-15T04:56:19.166Z,52.55
2023-03-15T04:59:07.124Z,52.39
2023-03-15T05:01:40.497Z,51.64
2023-03-15T05:04:39.056Z,52.09
2023-03-15T05:07:20.424Z,51.49
2023-03-15T05:09:59.923Z,51.04
2023-03-15T05:12:38.666Z,51.45
2023-03-15T05:15:22.815Z,51.12
2023-03-15T05:17:58.928Z,51.85
2023-03-15T05:20:42.158Z,52.12
2023-03-15T05:23:17.928Z,51.95
2023-03-15T05:26:04.955Z,51.80
2023-03-15T05:29:03.814Z,51.97
2023-03-15T05:31:55.593Z,52.16
2023-03-15T05:34:24.673Z,52.81
2023-03-15T05:37:13.633Z,52.33
2023-03-15T05:40:18.785Z,53.11
2023-03-15T05:42:58.225Z,53.21
2023-03-15T05:45:36.793Z,52.28
2023-03-15T05:48:40.277Z,53.09
2023-03-15T05:51:30.791Z,53.33
2023-03-15T05:54:25.388Z,53.98
2023-03-15T05:57:18.076Z,54.03
2023-03-15T06:00:07.216Z,54.40
2023-03-15T06:02:45.676Z,54.80
2023-03-15T06:05:34.425Z,55.14
2023-03-15T06:08:05.585Z,55.31
2023-03-15T06:10:36.111Z,55.57
2023-03-15T06:13:10.019Z,54.40
2023-03-15T06:15:39.347Z,54.87
2023-03-15T06:18:09.592Z,55.10
2023-03-15T06:20:38.742Z,55.02
2023-03-15T06:23:11.886Z,55.54
2023-03-15T06:25:45.799Z,54.93
2023-03-15T06:28:16.576Z,55.24
2023-03-15T06:30:51.616Z,55.53
2023-03-15T06:33:26.256Z,54.85
2023-03-15T06:35:54.710Z,55.65
2023-03-15T06:38:23.012Z,54.87
2023-03-15T06:40:51.408Z,54.87
2023-03-15T06:43:21.160Z,54.29
2023-03-15T06:45:50.081Z,55.33
2023-03-15T06:48:18.741Z,55.68
2023-03-15T06:50:47.977Z,55.12
2023-03-15T06:53:17.908Z,55.42
2023-03-15T06:55:47.147Z,55.31
2023-03-15T06:58:16.524Z,55.82
2023-03-15T07:00:46.280Z,55.71
2023-03-15T07:03:14.636Z,54.68
2023-03-15T07:05:43.123Z,54.12
2023-03-15T07:08:11.527Z,53.39
2023-03-15T07:10:39.961Z,52.85
2023-03-15T07:13:09.460Z,53.01
2023-03-15T07:15:38.562Z,53.51
2023-03-15T07:18:08.396Z,52.94
2023-03-15T07:20:37.816Z,52.41
2023-03-15T07:23:06.761Z,51.38
2023-03-15T07:25:48.362Z,51.31
2023-03-15T07:28:23.259Z,50.74
2023-03-15T07:30:55.928Z,50.13
2023-03-15T07:33:26.968Z,50.54
2023-03-15T07:35:57.141Z,48.63
2023-03-15T07:38:28.960Z,48.19
2023-03-15T07:40:58.475Z,47.46
2023-03-15T07:43:26.843Z,45.46
2023-03-15T07:46:08.237Z,45.00
2023-03-15T07:48:38.289Z,45.43
2023-03-15T07:51:09.565Z,45.03
2023-03-15T07:53:38.316Z,44.64
2023-03-15T07:56:07.205Z,43.93
2023-03-15T07:58:35.651Z,45.00
2023-03-15T08:01:05.708Z,43.67
2023-03-15T08:03:34.214Z,42.45
2023-03-15T08:06:04.167Z,44.06
2023-03-15T08:08:32.579Z,42.37
2023-03-15T08:11:01.121Z,41.31
2023-03-15T08:13:29.734Z,41.90
2023-03-15T08:15:58.310Z,40.10
2023-03-15T08:18:31.491Z,40.27
2023-03-15T08:21:01.303Z,39.78
2023-03-15T08:23:31.383Z,41.07
2023-03-15T08:25:59.859Z,40.50
2023-03-15T08:28:28.207Z,40.31
2023-03-15T08:30:56.606Z,40.41
2023-03-15T08:33:25.065Z,39.76
2023-03-15T08:35:54.673Z,41.17
2023-03-15T08:38:23.299Z,40.00
2023-03-15T08:40:57.324Z,40.49
2023-03-15T08:43:26.216Z,40.90
2023-03-15T08:46:01.027Z,40.25
2023-03-15T08:48:31.667Z,39.75
2023-03-15T08:51:04.298Z,39.54
2023-03-15T08:53:33.281Z,39.22
2023-03-15T08:56:04.218Z,39.49
2023-03-15T08:58:32.811Z,38.49
2023-03-15T09:01:01.099Z,39.77
2023-03-15T09:03:29.648Z,39.53
2023-03-15T09:05:58.775Z,39.20
2023-03-15T09:08:28.042Z,38.36
2023-03-15T09:10:57.155Z,38.56
2023-03-15T09:13:27.518Z,38.42
2023-03-15T09:15:57.320Z,38.23
2023-03-15T09:18:26.103Z,38.58
2023-03-15T09:20:55.021Z,38.86
2023-03-15T09:23:24.181Z,38.52
2023-03-15T09:25:52.738Z,38.96
2023-03-15T09:28:21.209Z,38.76
2023-03-15T09:30:50.966Z,39.69
2023-03-15T09:33:19.328Z,39.54
2023-03-15T09:35:47.827Z,38.80
2023-03-15T09:38:16.298Z,38.51
2023-03-15T09:40:46.355Z,39.05
2023-03-15T09:43:44.937Z,39.30
2023-03-15T09:46:27.944Z,39.56
2023-03-15T09:49:01.322Z,39.20
2023-03-15T09:51:39.823Z,39.03
2023-03-15T09:54:14.109Z,40.25
2023-03-15T09:56:47.283Z,38.58
2023-03-15T09:59:22.734Z,38.86
2023-03-15T10:01:56.404Z,38.90
2023-03-15T10:04:29.523Z,38.25
2023-03-15T10:07:00.037Z,38.46
2023-03-15T10:09:33.350Z,38.10
2023-03-15T10:12:05.876Z,38.96
2023-03-15T10:14:50.064Z,38.57
2023-03-15T10:17:25.913Z,38.98
2023-03-15T10:20:01.411Z,37.88
2023-03-15T10:22:35.593Z,37.13
2023-03-15T10:25:12.682Z,38.00
2023-03-15T10:27:47.227Z,38.28
2023-03-15T10:30:19.021Z,37.97
2023-03-15T10:32:53.420Z,36.97
2023-03-15T10:35:22.280Z,37.70
2023-03-15T10:37:50.744Z,37.18
2023-03-15T10:40:41.040Z,37.82
2023-03-15T10:43:18.291Z,36.76
2023-03-15T10:45:51.510Z,36.94
2023-03-15T10:48:21.933Z,36.88
2023-03-15T10:50:52.531Z,35.71
2023-03-15T10:53:22.270Z,35.66
2023-03-15T10:55:51.030Z,35.11
2023-03-15T10:58:27.729Z,34.64
2023-03-15T11:01:02.073Z,34.07
2023-03-15T11:03:33.176Z,34.17
2023-03-15T11:06:02.210Z,34.61
2023-03-15T11:08:39.100Z,33.69
2023-03-15T11:11:09.095Z,33.57
2023-03-15T11:13:39.194Z,33.21
2023-03-15T11:16:19.966Z,33.32
2023-03-15T11:18:53.797Z,33.42
2023-03-15T11:21:25.407Z,33.37
2023-03-15T11:23:55.197Z,33.91
2023-03-15T11:26:33.591Z,33.47
2023-03-15T11:29:08.146Z,32.80
2023-03-15T11:31:37.671Z,31.37
2023-03-15T11:34:13.576Z,32.25
2023-03-15T11:36:49.054Z,31.44
2023-03-15T11:39:34.118Z,32.66
2023-03-15T11:42:10.520Z,33.20
2023-03-15T11:44:45.127Z,31.73
2023-03-15T11:47:21.930Z,31.17
2023-03-15T11:49:54.639Z,32.18
2023-03-15T11:52:26.429Z,30.95
2023-03-15T11:54:58.628Z,30.97
2023-03-15T11:57:45.984Z,31.27
2023-03-15T12:00:47.230Z,31.36
2023-03-15T12:03:40.658Z,30.91
2023-03-15T12:06:29.974Z,31.48
2023-03-15T12:08:58.444Z,31.69
2023-03-15T12:11:43.006Z,30.71
2023-03-15T12:14:30.086Z,28.40
2023-03-15T12:17:39.373Z,30.01
2023-03-15T12:20:14.721Z,29.57
2023-03-15T12:22:50.915Z,30.39
2023-03-15T12:25:33.938Z,30.23
2023-03-15T12:28:09.794Z,30.32
2023-03-15T12:30:42.200Z,30.94
2023-03-15T12:33:16.910Z,31.19
2023-03-15T12:35:45.789Z,31.09
2023-03-15T12:38:20.025Z,30.26
2023-03-15T12:40:54.774Z,27.91
2023-03-15T12:43:41.822Z,27.01
2023-03-15T12:46:50.250Z,26.10
2023-03-15T12:49:31.902Z,26.15
2023-03-15T12:52:04.284Z,28.40
2023-03-15T12:54:40.632Z,28.63
2023-03-15T12:57:13.088Z,28.98
2023-03-15T12:59:53.352Z,28.36
2023-03-15T13:02:42.790Z,27.92
2023-03-15T13:05:23.832Z,27.07
2023-03-15T13:07:58.270Z,27.19
2023-03-15T13:10:39.197Z,27.38
2023-03-15T13:13:34.067Z,26.52
2023-03-15T13:16:23.079Z,28.38
2023-03-15T13:19:00.578Z,27.54
2023-03-15T13:21:35.062Z,27.75
2023-03-15T13:24:05.571Z,27.84
2023-03-15T13:26:55.713Z,27.83
2023-03-15T13:29:28.923Z,29.72
2023-03-15T13:32:08.224Z,29.44
2023-03-15T13:34:37.357Z,27.87
2023-03-15T13:37:12.238Z,27.63
2023-03-15T13:39:40.779Z,27.87
2023-03-15T13:42:20.141Z,27.82
2023-03-15T13:44:48.626Z,28.52
2023-03-15T13:47:22.096Z,28.49
2023-03-15T13:49:53.845Z,28.21
2023-03-15T13:52:22.500Z,27.69
2023-03-15T13:54:54.777Z,28.33
2023-03-15T13:57:26.111Z,28.64
2023-03-15T14:00:00.728Z,29.02
2023-03-15T14:02:38.310Z,28.34
2023-03-15T14:05:09.908Z,28.99
2023-03-15T14:07:40.231Z,28.63
2023-03-15T14:10:27.650Z,28.63
2023-03-15T14:12:58.372Z,29.45
2023-03-15T14:15:28.884Z,28.79
2023-03-15T14:18:02.957Z,28.19
2023-03-15T14:20:37.089Z,28.87
2023-03-15T14:23:07.882Z,28.32
2023-03-15T14:25:37.573Z,28.72
2023-03-15T14:28:07.995Z,27.89
2023-03-15T14:30:38.487Z,26.75
2023-03-15T14:33:09.007Z,28.42
2023-03-15T14:35:46.359Z,28.00
2023-03-15T14:38:19.914Z,27.42
2023-03-15T14:40:49.015Z,28.12
2023-03-15T14:43:19.317Z,27.28
2023-03-15T14:45:49.326Z,28.29
2023-03-15T14:48:27.723Z,28.02
2023-03-15T14:50:56.676Z,28.53
2023-03-15T14:53:28.039Z,29.19
2023-03-15T14:55:56.412Z,27.85
2023-03-15T14:58:26.191Z,27.97
2023-03-15T15:00:58.104Z,28.07
2023-03-15T15:03:35.743Z,28.91
2023-03-15T15:06:04.386Z,28.96
2023-03-15T15:08:33.843Z,27.46
2023-03-15T15:11:02.841Z,26.81
2023-03-15T15:13:32.983Z,28.24
2023-03-15T15:16:01.429Z,28.97
2023-03-15T15:18:31.728Z,29.00
2023-03-15T15:21:03.102Z,28.70
2023-03-15T15:23:33.674Z,27.54
2023-03-15T15:26:04.717Z,28.17
2023-03-15T15:28:37.374Z,27.63
2023-03-15T15:31:07.571Z,27.43
2023-03-15T15:33:36.504Z,27.28
2023-03-15T15:36:05.353Z,27.36
2023-03-15T15:38:39.039Z,27.58
2023-03-15T15:41:12.979Z,27.17
2023-03-15T15:43:43.514Z,27.66
2023-03-15T15:46:13.405Z,27.92
2023-03-15T15:48:42.552Z,28.26
2023-03-15T15:51:22.570Z,27.37
2023-03-15T15:53:51.493Z,27.28
2023-03-15T15:56:19.915Z,27.50
2023-03-15T15:58:50.390Z,27.58
2023-03-15T16:01:18.887Z,28.28
2023-03-15T16:03:47.278Z,27.96
2023-03-15T16:06:19.696Z,27.65
2023-03-15T16:08:50.837Z,27.00
2023-03-15T16:11:19.943Z,27.55
2023-03-15T16:13:54.023Z,27.76
2023-03-15T16:16:22.867Z,27.76
2023-03-15T16:18:51.179Z,28.35
2023-03-15T16:21:26.166Z,28.07
2023-03-15T16:23:59.853Z,28.12
2023-03-15T16:26:29.196Z,28.07
2023-03-15T16:28:58.989Z,28.63
2023-03-15T16:31:27.404Z,28.78
2023-03-15T16:33:56.474Z,28.52
2023-03-15T16:36:25.468Z,28.84
2023-03-15T16:38:53.743Z,29.13
2023-03-15T16:41:22.158Z,29.00
2023-03-15T16:43:50.539Z,29.35
2023-03-15T16:46:20.506Z,28.59
2023-03-15T16:48:49.057Z,28.68
2023-03-15T16:51:18.112Z,29.28
2023-03-15T16:53:46.688Z,29.82
2023-03-15T16:56:16.631Z,29.62
2023-03-15T16:58:46.118Z,29.18
2023-03-15T17:01:14.641Z,29.39
2023-03-15T17:03:44.449Z,29.25
2023-03-15T17:06:20.260Z,29.13
2023-03-15T17:08:49.157Z,29.33
2023-03-15T17:11:18.583Z,29.70
2023-03-15T17:13:47.457Z,30.22
2023-03-15T17:16:16.779Z,30.67
2023-03-15T17:18:47.859Z,31.60
2023-03-15T17:21:19.756Z,31.77
2023-03-15T17:23:49.772Z,32.13
2023-03-15T17:26:20.628Z,32.08
2023-03-15T17:28:49.851Z,32.42
2023-03-15T17:31:24.970Z,32.90
2023-03-15T17:33:55.502Z,32.89
2023-03-15T17:36:26.088Z,32.99
2023-03-15T17:38:55.696Z,33.46
2023-03-15T17:41:28.672Z,33.02
2023-03-15T17:43:57.514Z,33.77
2023-03-15T17:46:30.530Z,33.85
2023-03-15T17:49:01.201Z,34.15
2023-03-15T17:51:31.517Z,34.59
2023-03-15T17:54:00.820Z,34.20
2023-03-15T17:56:30.432Z,34.45
2023-03-15T17:58:58.846Z,34.50
2023-03-15T18:01:29.200Z,34.05
2023-03-15T18:03:59.430Z,34.53
2023-03-15T18:06:27.936Z,34.78
2023-03-15T18:08:56.417Z,34.47
2023-03-15T18:11:27.491Z,35.41
2023-03-15T18:13:56.931Z,35.67
2023-03-15T18:16:25.593Z,36.20
2023-03-15T18:18:54.113Z,38.00
2023-03-15T18:21:26.817Z,39.03
2023-03-15T18:23:56.517Z,40.25
2023-03-15T18:26:25.127Z,40.73
2023-03-15T18:28:53.633Z,41.46
2023-03-15T18:31:24.293Z,41.73
2023-03-15T18:33:53.985Z,42.62
2023-03-15T18:36:24.397Z,43.33
2023-03-15T18:38:53.049Z,43.89
2023-03-15T18:41:24.781Z,44.62
2023-03-15T18:43:53.574Z,44.42
2023-03-15T18:46:24.474Z,44.17
2023-03-15T18:48:54.616Z,44.95
2023-03-15T18:51:28.296Z,45.05
2023-03-15T18:53:57.452Z,45.27
2023-03-15T18:56:27.129Z,46.22
2023-03-15T18:58:56.743Z,46.97
2023-03-15T19:01:25.593Z,47.35
2023-03-15T19:03:55.194Z,47.77
2023-03-15T19:06:26.820Z,48.14
2023-03-15T19:08:55.381Z,48.59
2023-03-15T19:11:24.568Z,49.05
2023-03-15T19:13:53.111Z,49.36
2023-03-15T19:16:22.905Z,49.70
2023-03-15T19:18:52.132Z,49.67
2023-03-15T19:21:21.025Z,49.96
2023-03-15T19:23:51.231Z,50.02
2023-03-15T19:26:19.584Z,50.15
2023-03-15T19:28:47.985Z,50.40
2023-03-15T19:31:16.424Z,50.66
2023-03-15T19:33:44.895Z,51.49
2023-03-15T19:36:13.319Z,51.18
2023-03-15T19:38:41.831Z,50.93
2023-03-15T19:41:13.115Z,50.27
2023-03-15T19:43:43.624Z,49.42
2023-03-15T19:46:14.132Z,50.00
2023-03-15T19:48:43.118Z,50.05
2023-03-15T19:51:11.532Z,49.83
2023-03-15T19:53:40.008Z,49.67
2023-03-15T19:56:09.773Z,50.43
2023-03-15T19:58:39.743Z,51.00
2023-03-15T20:01:08.113Z,51.51
2023-03-15T20:03:36.479Z,52.10
2023-03-15T20:06:06.963Z,53.06
2023-03-15T20:08:35.494Z,52.95
2023-03-15T20:11:05.317Z,53.06
2023-03-15T20:13:33.982Z,52.76
2023-03-15T20:16:04.259Z,52.88
2023-03-15T20:18:33.427Z,53.34
2023-03-15T20:21:01.844Z,54.09
2023-03-15T20:23:30.391Z,53.31
2023-03-15T20:26:06.201Z,53.41
2023-03-15T20:28:34.662Z,54.04
2023-03-15T20:31:08.855Z,54.42
2023-03-15T20:33:37.573Z,54.10
2023-03-15T20:36:06.599Z,53.62
2023-03-15T20:38:37.309Z,54.06
2023-03-15T20:41:06.382Z,54.04
2023-03-15T20:43:35.200Z,54.71
2023-03-15T20:46:04.530Z,54.08
2023-03-15T20:48:36.144Z,54.33
2023-03-15T20:51:06.162Z,55.04
2023-03-15T20:53:36.401Z,55.75
2023-03-15T20:56:06.589Z,55.35
2023-03-15T20:58:35.102Z,55.36
2023-03-15T21:01:05.068Z,55.09
2023-03-15T21:03:35.507Z,55.41
2023-03-15T21:06:05.065Z,55.49
2023-03-15T21:08:34.731Z,55.26
2023-03-15T21:11:03.157Z,55.09
2023-03-15T21:13:31.648Z,54.21
2023-03-15T21:16:00.533Z,53.90
2023-03-15T21:18:29.048Z,54.29
2023-03-15T21:21:00.264Z,53.70
2023-03-15T21:23:31.228Z,53.54
2023-03-15T21:26:00.415Z,53.56
2023-03-15T21:28:28.992Z,53.90
2023-03-15T21:30:58.326Z,54.98
2023-03-15T21:33:28.644Z,55.34
2023-03-15T21:35:59.447Z,55.75
2023-03-15T21:38:29.111Z,56.07
2023-03-15T21:40:59.549Z,56.44
2023-03-15T21:43:29.892Z,55.60
2023-03-15T21:46:01.421Z,55.96
2023-03-15T21:48:30.692Z,55.66
2023-03-15T21:51:02.030Z,56.04
2023-03-15T21:53:31.483Z,55.62
2023-03-15T21:56:00.414Z,55.59
2023-03-15T21:58:29.507Z,55.51
2023-03-15T22:00:59.959Z,55.29
2023-03-15T22:03:29.496Z,55.60
2023-03-15T22:05:58.223Z,56.61
2023-03-15T22:08:28.202Z,57.21
2023-03-15T22:10:57.998Z,57.70
2023-03-15T22:13:26.968Z,57.55
2023-03-15T22:15:55.422Z,57.76
2023-03-15T22:18:24.352Z,56.61
2023-03-15T22:20:53.146Z,56.11
2023-03-15T22:23:21.879Z,55.73
2023-03-15T22:25:53.683Z,55.39
2023-03-15T22:28:22.592Z,55.64
2023-03-15T22:30:51.797Z,55.44
2023-03-15T22:33:21.620Z,55.59
2023-03-15T22:35:55.917Z,55.60
2023-03-15T22:38:25.161Z,55.72
2023-03-15T22:41:01.846Z,56.10
2023-03-15T22:43:30.428Z,56.26
2023-03-15T22:45:58.865Z,57.00
2023-03-15T22:48:27.316Z,57.75
2023-03-15T22:51:00.360Z,58.23
2023-03-15T22:53:29.684Z,57.16
2023-03-15T22:55:59.907Z,56.40
2023-03-15T22:58:28.581Z,55.91
2023-03-15T23:00:56.959Z,56.31
2023-03-15T23:03:26.414Z,56.55
2023-03-15T23:05:55.253Z,57.62
2023-03-15T23:08:24.340Z,58.28
2023-03-15T23:10:53.089Z,58.22
2023-03-15T23:13:22.953Z,57.90
2023-03-15T23:15:51.568Z,57.25
2023-03-15T23:18:20.178Z,56.63
2023-03-15T23:20:48.655Z,56.47
2023-03-15T23:23:17.233Z,56.16
2023-03-15T23:25:46.029Z,56.43
2023-03-15T23:28:17.439Z,56.03
2023-03-15T23:30:47.173Z,56.27
2023-03-15T23:33:15.537Z,56.96
2023-03-15T23:35:43.962Z,57.12
2023-03-15T23:38:13.728Z,57.09
2023-03-15T23:40:42.171Z,57.69
2023-03-15T23:43:10.719Z,58.03
2023-03-15T23:45:39.982Z,58.69
2023-03-15T23:48:09.907Z,59.01
2023-03-15T23:50:39.395Z,59.07
2023-03-15T23:53:07.853Z,59.47
2023-03-15T23:55:36.295Z,59.78
2023-03-15T23:58:06.874Z,59.89
